DLH55Y EDDF-KMIA
Flight info
| Callsign | DLH55Y |
|---|---|
| Flight time | N/A |
| Altitude | 38000 |
| Route | OBOKA5G/25C OBOKA Z29 TORNU DCT VELED DCT BREDA DCT GALSO Q63 ERING L179 UGBET Q60 OKSAW DCT FELCA DCT FADZU DCT BANBA DCT ADARA/M085F390 NATH OMSAT/M085F400 DCT CARAC M201 DRYED DCT KINER DCT JNFOX DCT FLUPS DCT MAPYL/N0487F400 G437 ZQA BR49V NICKO VIICE2 |
| Aircraft | A359/H-SDE2E3GHIJ3J4J5LM1ORWXY/LB1D1 |
Departure
| Time | 2026-05-07 15:36 |
|---|---|
| Airport | Frankfurt Main Airport (EDDF) |
Arrival
| Time | N/A |
|---|---|
| Airport | Miami International Airport (KMIA) |
| Time | Latitude | Longitude | Altitude | Speed | Heading |
|---|---|---|---|---|---|
| 2026-05-07 14:47 | 50.04774 | 8.56497 | 362 ft | 0 kts | 339° |
| 2026-05-07 15:20 | 50.04763 | 8.56504 | 369 ft | 2 kts | 334° |
| 2026-05-07 15:21 | 50.04749 | 8.56516 | 364 ft | 2 kts | 327° |
| 2026-05-07 15:21 | 50.04736 | 8.56532 | 369 ft | 2 kts | 313° |
| 2026-05-07 15:21 | 50.04726 | 8.56552 | 365 ft | 2 kts | 289° |
| 2026-05-07 15:21 | 50.04724 | 8.56577 | 368 ft | 2 kts | 260° |
| 2026-05-07 15:22 | 50.04728 | 8.56599 | 366 ft | 1 kts | 241° |
| 2026-05-07 15:22 | 50.04730 | 8.56605 | 368 ft | 0 kts | 237° |
| 2026-05-07 15:26 | 50.04715 | 8.56574 | 368 ft | 10 kts | 232° |
| 2026-05-07 15:26 | 50.04679 | 8.56479 | 370 ft | 10 kts | 244° |
| 2026-05-07 15:26 | 50.04652 | 8.56371 | 369 ft | 11 kts | 249° |
| 2026-05-07 15:27 | 50.04623 | 8.56256 | 370 ft | 12 kts | 249° |
| 2026-05-07 15:27 | 50.04594 | 8.56138 | 370 ft | 11 kts | 250° |
| 2026-05-07 15:27 | 50.04568 | 8.56028 | 367 ft | 11 kts | 249° |
| 2026-05-07 15:27 | 50.04517 | 8.55958 | 368 ft | 10 kts | 206° |
| 2026-05-07 15:28 | 50.04455 | 8.55924 | 368 ft | 9 kts | 197° |
| 2026-05-07 15:28 | 50.04389 | 8.55916 | 364 ft | 10 kts | 174° |
| 2026-05-07 15:28 | 50.04317 | 8.55947 | 365 ft | 13 kts | 163° |
| 2026-05-07 15:28 | 50.04222 | 8.55926 | 364 ft | 14 kts | 196° |
| 2026-05-07 15:29 | 50.04135 | 8.55950 | 364 ft | 13 kts | 161° |
| 2026-05-07 15:29 | 50.04079 | 8.56031 | 366 ft | 8 kts | 94° |
| 2026-05-07 15:29 | 50.04090 | 8.56120 | 362 ft | 9 kts | 73° |
| 2026-05-07 15:29 | 50.04111 | 8.56212 | 367 ft | 10 kts | 70° |
| 2026-05-07 15:30 | 50.04136 | 8.56316 | 360 ft | 10 kts | 70° |
| 2026-05-07 15:30 | 50.04161 | 8.56423 | 365 ft | 11 kts | 70° |
| 2026-05-07 15:30 | 50.04189 | 8.56541 | 369 ft | 15 kts | 69° |
| 2026-05-07 15:30 | 50.04237 | 8.56734 | 369 ft | 20 kts | 68° |
| 2026-05-07 15:31 | 50.04284 | 8.56937 | 372 ft | 20 kts | 70° |
| 2026-05-07 15:31 | 50.04332 | 8.57139 | 372 ft | 20 kts | 70° |
| 2026-05-07 15:31 | 50.04365 | 8.57279 | 373 ft | 10 kts | 70° |
| 2026-05-07 15:31 | 50.04391 | 8.57390 | 375 ft | 12 kts | 70° |
| 2026-05-07 15:32 | 50.04420 | 8.57516 | 371 ft | 14 kts | 73° |
| 2026-05-07 15:32 | 50.04420 | 8.57602 | 370 ft | 0 kts | 105° |
| 2026-05-07 15:32 | 50.04454 | 8.57704 | 371 ft | 25 kts | 57° |
| 2026-05-07 15:33 | 50.04524 | 8.57922 | 371 ft | 19 kts | 70° |
| 2026-05-07 15:33 | 50.04572 | 8.58129 | 376 ft | 21 kts | 70° |
| 2026-05-07 15:33 | 50.04619 | 8.58335 | 376 ft | 20 kts | 70° |
| 2026-05-07 15:33 | 50.04641 | 8.58531 | 377 ft | 14 kts | 122° |
| 2026-05-07 15:34 | 50.04558 | 8.58611 | 376 ft | 14 kts | 160° |
| 2026-05-07 15:34 | 50.04490 | 8.58574 | 376 ft | 11 kts | 229° |
| 2026-05-07 15:34 | 50.04469 | 8.58509 | 376 ft | 0 kts | 248° |
| 2026-05-07 15:35 | 50.04468 | 8.58505 | 376 ft | 7 kts | 248° |
| 2026-05-07 15:35 | 50.04372 | 8.58105 | 375 ft | 70 kts | 250° |
| 2026-05-07 15:35 | 50.04137 | 8.57120 | 375 ft | 122 kts | 250° |
| 2026-05-07 15:35 | 50.03782 | 8.55646 | 381 ft | 165 kts | 249° |
| 2026-05-07 15:36 | 50.03386 | 8.53958 | 944 ft | 165 kts | 250° |
| 2026-05-07 15:36 | 50.03013 | 8.52274 | 1577 ft | 165 kts | 254° |
| 2026-05-07 15:36 | 50.02660 | 8.50576 | 2142 ft | 165 kts | 255° |
| 2026-05-07 15:36 | 50.02507 | 8.48759 | 2473 ft | 178 kts | 276° |
| 2026-05-07 15:37 | 50.02698 | 8.46760 | 2731 ft | 197 kts | 282° |
| 2026-05-07 15:37 | 50.02881 | 8.44563 | 3062 ft | 213 kts | 272° |
| 2026-05-07 15:37 | 50.02748 | 8.42185 | 3453 ft | 229 kts | 263° |
| 2026-05-07 15:37 | 50.02473 | 8.39630 | 3799 ft | 248 kts | 261° |
| 2026-05-07 15:38 | 50.02153 | 8.36961 | 4431 ft | 253 kts | 261° |
| 2026-05-07 15:38 | 50.01826 | 8.34259 | 5165 ft | 255 kts | 261° |
| 2026-05-07 15:38 | 50.01497 | 8.31527 | 5864 ft | 259 kts | 260° |
| 2026-05-07 15:38 | 50.01326 | 8.28699 | 6531 ft | 262 kts | 274° |
| 2026-05-07 15:39 | 50.01764 | 8.25982 | 7110 ft | 264 kts | 292° |
| 2026-05-07 15:39 | 50.02506 | 8.23363 | 7689 ft | 266 kts | 295° |
| 2026-05-07 15:39 | 50.03294 | 8.20743 | 8246 ft | 269 kts | 295° |
| 2026-05-07 15:39 | 50.04087 | 8.18087 | 8801 ft | 273 kts | 294° |
| 2026-05-07 15:40 | 50.04883 | 8.15392 | 9388 ft | 275 kts | 294° |
| 2026-05-07 15:40 | 50.05710 | 8.12700 | 9988 ft | 277 kts | 298° |
| 2026-05-07 15:40 | 50.06800 | 8.10203 | 10472 ft | 282 kts | 307° |
| 2026-05-07 15:40 | 50.08035 | 8.07788 | 10951 ft | 287 kts | 308° |
| 2026-05-07 15:41 | 50.09302 | 8.05362 | 11493 ft | 291 kts | 308° |
| 2026-05-07 15:41 | 50.10579 | 8.02906 | 12036 ft | 293 kts | 308° |
| 2026-05-07 15:41 | 50.11868 | 8.00416 | 12477 ft | 300 kts | 308° |
| 2026-05-07 15:41 | 50.13199 | 7.97833 | 12741 ft | 312 kts | 308° |
| 2026-05-07 15:42 | 50.14584 | 7.95141 | 12976 ft | 324 kts | 308° |
| 2026-05-07 15:42 | 50.16019 | 7.92345 | 13221 ft | 336 kts | 308° |
| 2026-05-07 15:42 | 50.17498 | 7.89460 | 13465 ft | 346 kts | 308° |
| 2026-05-07 15:42 | 50.19023 | 7.86482 | 13694 ft | 356 kts | 308° |
| 2026-05-07 15:43 | 50.20591 | 7.83416 | 13915 ft | 366 kts | 308° |
| 2026-05-07 15:43 | 50.22198 | 7.80270 | 14095 ft | 375 kts | 307° |
| 2026-05-07 15:43 | 50.23850 | 7.77065 | 14341 ft | 382 kts | 309° |
| 2026-05-07 15:43 | 50.25770 | 7.74146 | 14663 ft | 388 kts | 322° |
| 2026-05-07 15:44 | 50.28100 | 7.71996 | 15074 ft | 391 kts | 333° |
| 2026-05-07 15:44 | 50.30586 | 7.70246 | 15451 ft | 394 kts | 335° |
| 2026-05-07 15:44 | 50.33112 | 7.68541 | 15859 ft | 396 kts | 335° |
| 2026-05-07 15:44 | 50.35654 | 7.66822 | 16258 ft | 399 kts | 335° |
| 2026-05-07 15:45 | 50.38201 | 7.65089 | 16662 ft | 401 kts | 335° |
| 2026-05-07 15:45 | 50.40767 | 7.63332 | 17039 ft | 404 kts | 335° |
| 2026-05-07 15:45 | 50.43353 | 7.61558 | 17410 ft | 407 kts | 335° |
| 2026-05-07 15:45 | 50.45948 | 7.59773 | 17853 ft | 409 kts | 335° |
| 2026-05-07 15:46 | 50.51189 | 7.56161 | 18586 ft | 414 kts | 335° |
| 2026-05-07 15:46 | 50.52941 | 7.54950 | 18822 ft | 415 kts | 335° |
| 2026-05-07 15:46 | 50.55563 | 7.53038 | 19176 ft | 416 kts | 330° |
| 2026-05-07 15:47 | 50.58051 | 7.50706 | 19552 ft | 417 kts | 326° |
| 2026-05-07 15:47 | 50.60496 | 7.48218 | 19932 ft | 419 kts | 326° |
| 2026-05-07 15:47 | 50.62936 | 7.45708 | 20257 ft | 421 kts | 325° |
| 2026-05-07 15:47 | 50.65401 | 7.43172 | 20531 ft | 424 kts | 325° |
| 2026-05-07 15:48 | 50.67879 | 7.40623 | 20846 ft | 426 kts | 325° |
| 2026-05-07 15:48 | 50.70369 | 7.38061 | 21173 ft | 428 kts | 325° |
| 2026-05-07 15:48 | 50.72791 | 7.35313 | 21477 ft | 429 kts | 318° |
| 2026-05-07 15:48 | 50.74852 | 7.31933 | 21803 ft | 428 kts | 306° |
| 2026-05-07 15:49 | 50.76480 | 7.27992 | 22122 ft | 429 kts | 299° |
| 2026-05-07 15:49 | 50.77925 | 7.23876 | 22451 ft | 430 kts | 296° |
| 2026-05-07 15:49 | 50.79288 | 7.19661 | 22761 ft | 431 kts | 295° |
| 2026-05-07 15:49 | 50.80621 | 7.15400 | 23080 ft | 433 kts | 295° |
| 2026-05-07 15:50 | 50.81958 | 7.11115 | 23391 ft | 435 kts | 295° |
| 2026-05-07 15:50 | 50.83308 | 7.06828 | 23697 ft | 437 kts | 295° |
| 2026-05-07 15:50 | 50.84676 | 7.02522 | 23978 ft | 439 kts | 295° |
| 2026-05-07 15:50 | 50.86059 | 6.98205 | 24249 ft | 441 kts | 295° |
| 2026-05-07 15:51 | 50.87451 | 6.93882 | 24521 ft | 442 kts | 296° |
| 2026-05-07 15:51 | 50.88852 | 6.89533 | 24798 ft | 444 kts | 296° |
| 2026-05-07 15:51 | 50.90258 | 6.85166 | 25080 ft | 446 kts | 296° |
| 2026-05-07 15:51 | 50.91666 | 6.80780 | 25351 ft | 447 kts | 296° |
| 2026-05-07 15:52 | 50.93076 | 6.76381 | 25643 ft | 449 kts | 296° |
| 2026-05-07 15:52 | 50.94490 | 6.71959 | 25905 ft | 450 kts | 296° |
| 2026-05-07 15:52 | 50.95910 | 6.67512 | 26179 ft | 452 kts | 296° |
| 2026-05-07 15:52 | 50.97330 | 6.63051 | 26458 ft | 454 kts | 296° |
| 2026-05-07 15:53 | 50.98753 | 6.58575 | 26744 ft | 455 kts | 296° |
| 2026-05-07 15:53 | 51.00181 | 6.54075 | 27015 ft | 457 kts | 296° |
| 2026-05-07 15:53 | 51.01611 | 6.49561 | 27282 ft | 459 kts | 296° |
| 2026-05-07 15:53 | 51.03042 | 6.45033 | 27560 ft | 460 kts | 296° |
| 2026-05-07 15:54 | 51.04480 | 6.40478 | 27850 ft | 462 kts | 296° |
| 2026-05-07 15:54 | 51.05924 | 6.35893 | 28121 ft | 464 kts | 296° |
| 2026-05-07 15:54 | 51.07368 | 6.31298 | 28394 ft | 466 kts | 296° |
| 2026-05-07 15:54 | 51.08816 | 6.26686 | 28651 ft | 467 kts | 295° |
| 2026-05-07 15:55 | 51.10268 | 6.22049 | 28923 ft | 469 kts | 295° |
| 2026-05-07 15:55 | 51.11723 | 6.17394 | 29184 ft | 471 kts | 295° |
| 2026-05-07 15:55 | 51.13151 | 6.12699 | 29460 ft | 472 kts | 292° |
| 2026-05-07 15:55 | 51.14283 | 6.07796 | 29699 ft | 473 kts | 286° |
| 2026-05-07 15:56 | 51.15207 | 6.02760 | 29951 ft | 474 kts | 284° |
| 2026-05-07 15:56 | 51.16070 | 5.97690 | 30201 ft | 475 kts | 284° |
| 2026-05-07 15:56 | 51.16900 | 5.92601 | 30510 ft | 474 kts | 283° |
| 2026-05-07 15:56 | 51.17799 | 5.87560 | 30832 ft | 473 kts | 288° |
| 2026-05-07 15:57 | 51.19059 | 5.82717 | 31144 ft | 474 kts | 295° |
| 2026-05-07 15:57 | 51.20717 | 5.78178 | 31412 ft | 475 kts | 301° |
| 2026-05-07 15:57 | 51.22548 | 5.73796 | 31701 ft | 475 kts | 303° |
| 2026-05-07 15:57 | 51.24438 | 5.69483 | 32020 ft | 474 kts | 304° |
| 2026-05-07 15:58 | 51.26356 | 5.65203 | 32342 ft | 473 kts | 304° |
| 2026-05-07 15:58 | 51.28270 | 5.60952 | 32620 ft | 472 kts | 304° |
| 2026-05-07 15:58 | 51.30189 | 5.56680 | 32906 ft | 472 kts | 304° |
| 2026-05-07 15:58 | 51.32092 | 5.52418 | 33210 ft | 471 kts | 304° |
| 2026-05-07 15:59 | 51.33984 | 5.48157 | 33486 ft | 470 kts | 303° |
| 2026-05-07 15:59 | 51.35870 | 5.43891 | 33782 ft | 469 kts | 303° |
| 2026-05-07 15:59 | 51.37752 | 5.39615 | 34067 ft | 469 kts | 303° |
| 2026-05-07 15:59 | 51.39465 | 5.35195 | 34297 ft | 467 kts | 298° |
| 2026-05-07 16:00 | 51.41051 | 5.30655 | 34487 ft | 468 kts | 297° |
| 2026-05-07 16:00 | 51.42607 | 5.26070 | 34664 ft | 468 kts | 297° |
| 2026-05-07 16:00 | 51.44143 | 5.21462 | 34810 ft | 470 kts | 296° |
| 2026-05-07 16:00 | 51.45675 | 5.16829 | 34987 ft | 470 kts | 296° |
| 2026-05-07 16:01 | 51.47203 | 5.12193 | 35162 ft | 471 kts | 296° |
| 2026-05-07 16:01 | 51.48735 | 5.07542 | 35289 ft | 473 kts | 296° |
| 2026-05-07 16:01 | 51.50273 | 5.02874 | 35459 ft | 473 kts | 296° |
| 2026-05-07 16:01 | 51.51807 | 4.98217 | 35652 ft | 472 kts | 296° |
| 2026-05-07 16:02 | 51.53344 | 4.93545 | 35814 ft | 473 kts | 296° |
| 2026-05-07 16:02 | 51.54821 | 4.88834 | 35981 ft | 472 kts | 292° |
| 2026-05-07 16:02 | 51.55965 | 4.83898 | 36103 ft | 471 kts | 285° |
| 2026-05-07 16:02 | 51.56725 | 4.78850 | 36265 ft | 471 kts | 281° |
| 2026-05-07 16:03 | 51.57366 | 4.73690 | 36416 ft | 470 kts | 279° |
| 2026-05-07 16:03 | 51.57945 | 4.68516 | 36556 ft | 471 kts | 278° |
| 2026-05-07 16:03 | 51.58496 | 4.63330 | 36701 ft | 471 kts | 278° |
| 2026-05-07 16:03 | 51.59036 | 4.58138 | 36856 ft | 471 kts | 278° |
| 2026-05-07 16:04 | 51.59581 | 4.52906 | 37005 ft | 471 kts | 278° |
| 2026-05-07 16:04 | 51.60125 | 4.47710 | 37141 ft | 471 kts | 278° |
| 2026-05-07 16:04 | 51.60671 | 4.42515 | 37264 ft | 472 kts | 278° |
| 2026-05-07 16:04 | 51.61220 | 4.37317 | 37401 ft | 472 kts | 278° |
| 2026-05-07 16:05 | 51.61770 | 4.32103 | 37512 ft | 472 kts | 278° |
| 2026-05-07 16:05 | 51.62317 | 4.26903 | 37619 ft | 472 kts | 278° |
| 2026-05-07 16:05 | 51.62864 | 4.21688 | 37741 ft | 472 kts | 278° |
| 2026-05-07 16:05 | 51.63408 | 4.16467 | 37860 ft | 472 kts | 278° |
| 2026-05-07 16:06 | 51.63948 | 4.11261 | 37965 ft | 473 kts | 278° |
| 2026-05-07 16:06 | 51.65030 | 4.00763 | 37966 ft | 477 kts | 278° |
| 2026-05-07 16:07 | 51.66108 | 3.90197 | 38071 ft | 480 kts | 278° |
| 2026-05-07 16:07 | 51.67180 | 3.79595 | 38072 ft | 479 kts | 278° |
| 2026-05-07 16:08 | 51.68235 | 3.69071 | 38072 ft | 479 kts | 278° |
| 2026-05-07 16:08 | 51.69292 | 3.58413 | 38078 ft | 479 kts | 277° |
| 2026-05-07 16:09 | 51.70327 | 3.47878 | 38080 ft | 479 kts | 277° |
| 2026-05-07 16:09 | 51.71359 | 3.37280 | 38087 ft | 479 kts | 277° |
| 2026-05-07 16:10 | 51.72382 | 3.26668 | 38084 ft | 479 kts | 277° |
| 2026-05-07 16:10 | 51.72978 | 3.16024 | 38083 ft | 476 kts | 266° |
| 2026-05-07 16:11 | 51.72329 | 3.05405 | 38080 ft | 476 kts | 262° |
| 2026-05-07 16:11 | 51.71411 | 2.94845 | 38080 ft | 476 kts | 261° |
| 2026-05-07 16:12 | 51.70447 | 2.84282 | 38080 ft | 476 kts | 261° |
| 2026-05-07 16:12 | 51.69495 | 2.73732 | 38080 ft | 476 kts | 261° |
| 2026-05-07 16:13 | 51.68552 | 2.63188 | 38082 ft | 476 kts | 261° |
| 2026-05-07 16:13 | 51.67606 | 2.52629 | 38075 ft | 476 kts | 261° |
| 2026-05-07 16:14 | 51.66652 | 2.42086 | 38075 ft | 476 kts | 261° |
| 2026-05-07 16:14 | 51.65680 | 2.31555 | 38067 ft | 475 kts | 260° |
| 2026-05-07 16:15 | 51.64698 | 2.21032 | 38088 ft | 475 kts | 260° |
| 2026-05-07 16:15 | 51.63709 | 2.10510 | 38066 ft | 475 kts | 260° |
| 2026-05-07 16:16 | 51.62734 | 1.99997 | 38077 ft | 475 kts | 261° |
| 2026-05-07 16:16 | 51.61762 | 1.89478 | 38073 ft | 475 kts | 260° |
| 2026-05-07 16:17 | 51.60778 | 1.78977 | 38077 ft | 475 kts | 260° |
| 2026-05-07 16:17 | 51.59777 | 1.68472 | 38074 ft | 475 kts | 260° |
| 2026-05-07 16:18 | 51.59289 | 1.57893 | 38071 ft | 476 kts | 270° |
| 2026-05-07 16:18 | 51.59625 | 1.47254 | 38080 ft | 477 kts | 272° |
| 2026-05-07 16:19 | 51.60098 | 1.36609 | 38078 ft | 477 kts | 272° |
| 2026-05-07 16:19 | 51.60567 | 1.26028 | 38076 ft | 477 kts | 272° |
| 2026-05-07 16:20 | 51.61013 | 1.15379 | 38071 ft | 477 kts | 272° |
| 2026-05-07 16:20 | 51.61439 | 1.04660 | 38074 ft | 477 kts | 272° |
| 2026-05-07 16:21 | 51.61848 | 0.94073 | 38069 ft | 477 kts | 272° |
| 2026-05-07 16:21 | 51.62258 | 0.83413 | 38084 ft | 477 kts | 272° |
| 2026-05-07 16:22 | 51.62651 | 0.72756 | 38085 ft | 477 kts | 272° |
| 2026-05-07 16:22 | 51.63031 | 0.62120 | 38071 ft | 477 kts | 272° |
| 2026-05-07 16:23 | 51.63412 | 0.51447 | 38067 ft | 477 kts | 272° |
| 2026-05-07 16:23 | 51.63778 | 0.40792 | 38067 ft | 477 kts | 271° |
| 2026-05-07 16:24 | 51.64129 | 0.30141 | 38066 ft | 477 kts | 271° |
| 2026-05-07 16:24 | 51.64463 | 0.19492 | 38068 ft | 476 kts | 270° |
| 2026-05-07 16:25 | 51.63932 | 0.08906 | 38065 ft | 474 kts | 261° |
| 2026-05-07 16:25 | 51.62871 | -0.01558 | 38070 ft | 474 kts | 259° |
| 2026-05-07 16:26 | 51.61997 | -0.12064 | 38073 ft | 475 kts | 267° |
| 2026-05-07 16:26 | 51.62332 | -0.22690 | 38074 ft | 476 kts | 273° |
| 2026-05-07 16:27 | 51.62968 | -0.33290 | 38075 ft | 476 kts | 274° |
| 2026-05-07 16:27 | 51.63644 | -0.43897 | 38051 ft | 476 kts | 274° |
| 2026-05-07 16:28 | 51.64293 | -0.54511 | 38048 ft | 476 kts | 274° |
| 2026-05-07 16:28 | 51.64915 | -0.65117 | 38040 ft | 476 kts | 274° |
| 2026-05-07 16:29 | 51.65523 | -0.75739 | 38046 ft | 476 kts | 274° |
| 2026-05-07 16:29 | 51.66121 | -0.86346 | 38035 ft | 476 kts | 274° |
| 2026-05-07 16:30 | 51.66711 | -0.96973 | 38030 ft | 476 kts | 273° |
| 2026-05-07 16:30 | 51.67290 | -1.07585 | 38023 ft | 476 kts | 273° |
| 2026-05-07 16:31 | 51.67765 | -1.16410 | 38028 ft | 475 kts | 273° |
| 2026-05-07 16:31 | 51.68419 | -1.28798 | 38024 ft | 480 kts | 273° |
| 2026-05-07 16:32 | 51.68977 | -1.39551 | 38018 ft | 484 kts | 273° |
| 2026-05-07 16:32 | 51.69529 | -1.50387 | 38023 ft | 486 kts | 273° |
| 2026-05-07 16:33 | 51.69986 | -1.59496 | 38020 ft | 487 kts | 273° |
| 2026-05-07 16:33 | 51.70525 | -1.70390 | 38027 ft | 488 kts | 273° |
| 2026-05-07 16:34 | 51.71255 | -1.81228 | 38026 ft | 489 kts | 275° |
| 2026-05-07 16:34 | 51.72095 | -1.92128 | 38029 ft | 490 kts | 275° |
| 2026-05-07 16:35 | 51.72905 | -2.03034 | 38024 ft | 490 kts | 275° |
| 2026-05-07 16:35 | 51.73682 | -2.14028 | 38021 ft | 490 kts | 275° |
| 2026-05-07 16:36 | 51.74432 | -2.24938 | 38018 ft | 490 kts | 274° |
| 2026-05-07 16:36 | 51.75174 | -2.35879 | 38021 ft | 490 kts | 274° |
| 2026-05-07 16:37 | 51.75906 | -2.46814 | 38022 ft | 490 kts | 274° |
| 2026-05-07 16:37 | 51.76627 | -2.57737 | 38013 ft | 490 kts | 274° |
| 2026-05-07 16:38 | 51.77339 | -2.68671 | 38009 ft | 490 kts | 274° |
| 2026-05-07 16:38 | 51.78041 | -2.79612 | 38011 ft | 490 kts | 274° |
| 2026-05-07 16:39 | 51.78733 | -2.90564 | 38046 ft | 490 kts | 274° |
| 2026-05-07 16:39 | 51.79415 | -3.01514 | 38050 ft | 490 kts | 274° |
| 2026-05-07 16:40 | 51.80088 | -3.12482 | 38039 ft | 489 kts | 274° |
| 2026-05-07 16:40 | 51.80747 | -3.23400 | 38034 ft | 489 kts | 274° |
| 2026-05-07 16:41 | 51.81397 | -3.34339 | 38024 ft | 489 kts | 274° |
| 2026-05-07 16:41 | 51.82037 | -3.45293 | 38020 ft | 490 kts | 274° |
| 2026-05-07 16:42 | 51.82890 | -3.56204 | 38014 ft | 491 kts | 278° |
| 2026-05-07 16:42 | 51.84211 | -3.66962 | 38015 ft | 491 kts | 279° |
| 2026-05-07 16:43 | 51.85609 | -3.77756 | 38010 ft | 491 kts | 280° |
| 2026-05-07 16:43 | 51.87007 | -3.88558 | 38013 ft | 491 kts | 279° |
| 2026-05-07 16:44 | 51.88202 | -3.99408 | 38013 ft | 489 kts | 274° |
| 2026-05-07 16:44 | 51.88757 | -4.10373 | 38009 ft | 488 kts | 272° |
| 2026-05-07 16:45 | 51.89185 | -4.21332 | 38009 ft | 488 kts | 271° |
| 2026-05-07 16:45 | 51.89586 | -4.32284 | 37992 ft | 488 kts | 271° |
| 2026-05-07 16:46 | 51.89989 | -4.43247 | 38014 ft | 488 kts | 271° |
| 2026-05-07 16:46 | 51.90388 | -4.54206 | 38010 ft | 488 kts | 271° |
| 2026-05-07 16:47 | 51.90779 | -4.65172 | 37991 ft | 488 kts | 271° |
| 2026-05-07 16:47 | 51.91158 | -4.76140 | 37996 ft | 488 kts | 271° |
| 2026-05-07 16:48 | 51.91530 | -4.87115 | 37996 ft | 488 kts | 271° |
| 2026-05-07 16:48 | 51.91891 | -4.98087 | 38002 ft | 488 kts | 271° |
| 2026-05-07 16:49 | 51.92241 | -5.09074 | 38009 ft | 489 kts | 271° |
| 2026-05-07 16:49 | 51.92580 | -5.19999 | 38004 ft | 489 kts | 271° |
| 2026-05-07 16:50 | 51.92910 | -5.30991 | 38004 ft | 489 kts | 271° |
| 2026-05-07 16:50 | 51.93230 | -5.41982 | 38001 ft | 488 kts | 271° |
| 2026-05-07 16:51 | 51.93539 | -5.52975 | 37998 ft | 488 kts | 271° |
| 2026-05-07 16:51 | 51.93838 | -5.63960 | 37999 ft | 488 kts | 271° |
| 2026-05-07 16:52 | 51.94127 | -5.74956 | 37996 ft | 488 kts | 270° |
| 2026-05-07 16:52 | 51.94405 | -5.85943 | 37994 ft | 487 kts | 270° |
| 2026-05-07 16:53 | 51.94673 | -5.96916 | 37998 ft | 488 kts | 270° |
| 2026-05-07 16:53 | 51.94931 | -6.07903 | 37994 ft | 488 kts | 270° |
| 2026-05-07 16:54 | 51.95179 | -6.18897 | 37991 ft | 488 kts | 270° |
| 2026-05-07 16:54 | 51.95354 | -6.29907 | 37992 ft | 488 kts | 268° |
| 2026-05-07 16:55 | 51.95162 | -6.40887 | 37996 ft | 488 kts | 266° |
| 2026-05-07 16:55 | 51.94895 | -6.51870 | 37991 ft | 487 kts | 266° |
| 2026-05-07 16:56 | 51.94669 | -6.62848 | 37993 ft | 487 kts | 266° |
| 2026-05-07 16:56 | 51.94368 | -6.79250 | 37991 ft | 487 kts | 266° |
| 2026-05-07 16:57 | 51.94159 | -6.90211 | 37992 ft | 487 kts | 266° |
| 2026-05-07 16:57 | 51.93938 | -7.01181 | 37991 ft | 487 kts | 266° |
| 2026-05-07 16:58 | 51.93705 | -7.12148 | 37987 ft | 487 kts | 266° |
| 2026-05-07 16:58 | 51.93463 | -7.23082 | 37988 ft | 486 kts | 266° |
| 2026-05-07 16:59 | 51.93210 | -7.34053 | 37992 ft | 486 kts | 266° |
| 2026-05-07 16:59 | 51.92947 | -7.44990 | 37981 ft | 486 kts | 266° |
| 2026-05-07 17:00 | 51.92674 | -7.55919 | 37980 ft | 485 kts | 266° |
| 2026-05-07 17:00 | 51.92392 | -7.66828 | 37975 ft | 485 kts | 266° |
| 2026-05-07 17:01 | 51.92100 | -7.77745 | 37978 ft | 485 kts | 266° |
| 2026-05-07 17:01 | 51.91797 | -7.88648 | 37973 ft | 484 kts | 266° |
| 2026-05-07 17:02 | 51.91485 | -7.99532 | 37970 ft | 484 kts | 266° |
| 2026-05-07 17:02 | 51.91166 | -8.10350 | 37962 ft | 484 kts | 266° |
| 2026-05-07 17:03 | 51.90834 | -8.21228 | 37964 ft | 484 kts | 266° |
| 2026-05-07 17:03 | 51.90492 | -8.32108 | 37963 ft | 484 kts | 266° |
| 2026-05-07 17:04 | 51.90140 | -8.42990 | 37957 ft | 484 kts | 266° |
| 2026-05-07 17:04 | 51.89778 | -8.53858 | 37967 ft | 483 kts | 266° |
| 2026-05-07 17:05 | 51.89407 | -8.64725 | 37966 ft | 483 kts | 266° |
| 2026-05-07 17:05 | 51.89025 | -8.75593 | 37964 ft | 483 kts | 266° |
| 2026-05-07 17:06 | 51.88634 | -8.86448 | 37963 ft | 483 kts | 266° |
| 2026-05-07 17:06 | 51.88233 | -8.97295 | 37961 ft | 483 kts | 266° |
| 2026-05-07 17:07 | 51.87821 | -9.08137 | 37961 ft | 483 kts | 266° |
| 2026-05-07 17:07 | 51.87401 | -9.18967 | 37961 ft | 483 kts | 266° |
| 2026-05-07 17:08 | 51.86970 | -9.29815 | 37960 ft | 482 kts | 266° |
| 2026-05-07 17:08 | 51.86529 | -9.40636 | 37961 ft | 482 kts | 265° |
| 2026-05-07 17:09 | 51.86080 | -9.51447 | 37965 ft | 481 kts | 265° |
| 2026-05-07 17:09 | 51.85620 | -9.62249 | 37964 ft | 481 kts | 265° |
| 2026-05-07 17:10 | 51.85151 | -9.73037 | 37966 ft | 481 kts | 265° |
| 2026-05-07 17:10 | 51.84673 | -9.83825 | 37969 ft | 481 kts | 265° |
| 2026-05-07 17:11 | 51.84184 | -9.94607 | 37971 ft | 480 kts | 265° |
| 2026-05-07 17:11 | 51.83686 | -10.05383 | 37971 ft | 480 kts | 265° |
| 2026-05-07 17:12 | 51.83178 | -10.16148 | 37968 ft | 480 kts | 265° |
| 2026-05-07 17:12 | 51.82661 | -10.26909 | 37969 ft | 480 kts | 265° |
| 2026-05-07 17:13 | 51.82134 | -10.37670 | 37966 ft | 480 kts | 265° |
| 2026-05-07 17:13 | 51.81597 | -10.48433 | 37966 ft | 480 kts | 265° |
| 2026-05-07 17:14 | 51.81050 | -10.59181 | 37963 ft | 480 kts | 265° |